createdAt,value
2022-11-11T00:00:23.173Z,1027.28
2022-11-11T00:01:25.894Z,1027.28
2022-11-11T00:02:28.761Z,1027.32
2022-11-11T00:04:10.847Z,1027.37
2022-11-11T00:05:13.483Z,1027.32
2022-11-11T00:06:16.304Z,1027.35
2022-11-11T00:07:51.257Z,1027.33
2022-11-11T00:08:53.930Z,1027.34
2022-11-11T00:09:56.672Z,1027.36
2022-11-11T00:11:31.098Z,1027.38
2022-11-11T00:12:38.556Z,1027.38
2022-11-11T00:13:41.344Z,1027.35
2022-11-11T00:15:15.823Z,1027.42
2022-11-11T00:16:18.496Z,1027.43
2022-11-11T00:17:21.201Z,1027.43
2022-11-11T00:18:55.862Z,1027.46
2022-11-11T00:19:58.754Z,1027.47
2022-11-11T00:21:04.719Z,1027.47
2022-11-11T00:22:39.362Z,1027.56
2022-11-11T00:23:42.146Z,1027.55
2022-11-11T00:24:44.809Z,1027.54
2022-11-11T00:26:50.294Z,1027.56
2022-11-11T00:27:53.635Z,1027.59
2022-11-11T00:28:56.447Z,1027.57
2022-11-11T00:30:31.294Z,1027.55
2022-11-11T00:31:34.039Z,1027.59
2022-11-11T00:32:36.976Z,1027.57
2022-11-11T00:34:11.945Z,1027.58
2022-11-11T00:35:14.914Z,1027.56
2022-11-11T00:36:17.739Z,1027.57
2022-11-11T00:37:52.595Z,1027.55
2022-11-11T00:38:55.639Z,1027.65
2022-11-11T00:39:58.532Z,1027.62
2022-11-11T00:41:33.247Z,1027.67
2022-11-11T00:42:36.052Z,1027.61
2022-11-11T00:43:38.943Z,1027.61
2022-11-11T00:45:13.656Z,1027.61
2022-11-11T00:46:16.760Z,1027.63
2022-11-11T00:47:19.714Z,1027.60
2022-11-11T00:48:54.527Z,1027.58
2022-11-11T00:49:57.473Z,1027.54
2022-11-11T00:51:00.444Z,1027.55
2022-11-11T00:52:35.218Z,1027.51
2022-11-11T00:53:39.132Z,1027.48
2022-11-11T00:54:42.009Z,1027.52
2022-11-11T00:56:16.858Z,1027.47
2022-11-11T00:57:19.864Z,1027.47
2022-11-11T00:58:23.539Z,1027.50
2022-11-11T00:59:59.266Z,1027.47
2022-11-11T01:00:23.789Z,1027.52
2022-11-11T01:01:26.937Z,1027.49
2022-11-11T01:02:30.814Z,1027.48
2022-11-11T01:04:06.147Z,1027.50
2022-11-11T01:05:09.068Z,1027.57
2022-11-11T01:06:11.933Z,1027.55
2022-11-11T01:07:47.661Z,1027.55
2022-11-11T01:08:50.734Z,1027.52
2022-11-11T01:09:53.812Z,1027.53
2022-11-11T01:11:29.399Z,1027.55
2022-11-11T01:12:32.485Z,1027.52
2022-11-11T01:13:35.657Z,1027.52
2022-11-11T01:15:10.842Z,1027.50
2022-11-11T01:16:13.873Z,1027.48
2022-11-11T01:17:16.994Z,1027.45
2022-11-11T01:18:51.983Z,1027.45
2022-11-11T01:19:55.589Z,1027.41
2022-11-11T01:20:59.462Z,1027.46
2022-11-11T01:22:36.127Z,1027.46
2022-11-11T01:23:39.129Z,1027.45
2022-11-11T01:24:42.190Z,1027.43
2022-11-11T01:26:17.232Z,1027.44
2022-11-11T01:27:28.296Z,1027.42
2022-11-11T01:28:32.118Z,1027.45
2022-11-11T01:30:07.226Z,1027.51
2022-11-11T01:31:10.327Z,1027.48
2022-11-11T01:32:13.720Z,1027.48
2022-11-11T01:33:48.856Z,1027.50
2022-11-11T01:34:51.877Z,1027.48
2022-11-11T01:35:54.828Z,1027.53
2022-11-11T01:37:29.993Z,1027.53
2022-11-11T01:38:34.301Z,1027.50
2022-11-11T01:39:37.181Z,1027.55
2022-11-11T01:41:12.317Z,1027.59
2022-11-11T01:42:15.499Z,1027.56
2022-11-11T01:43:18.389Z,1027.65
2022-11-11T01:44:55.025Z,1027.68
2022-11-11T01:45:58.177Z,1027.70
2022-11-11T01:47:01.459Z,1027.71
2022-11-11T01:49:20.642Z,1027.67
2022-11-11T01:50:23.920Z,1027.64
2022-11-11T01:51:26.839Z,1027.61
2022-11-11T01:53:02.220Z,1027.67
2022-11-11T01:54:05.101Z,1027.61
2022-11-11T01:55:08.599Z,1027.66
2022-11-11T01:56:43.528Z,1027.67
2022-11-11T01:57:46.812Z,1027.68
2022-11-11T01:58:50.165Z,1027.64
2022-11-11T02:00:23.523Z,1027.67
2022-11-11T02:01:26.651Z,1027.71
2022-11-11T02:02:30.683Z,1027.72
2022-11-11T02:04:06.741Z,1027.66
2022-11-11T02:05:10.312Z,1027.67
2022-11-11T02:06:13.493Z,1027.61
2022-11-11T02:07:49.932Z,1027.61
2022-11-11T02:08:53.489Z,1027.66
2022-11-11T02:09:56.620Z,1027.69
2022-11-11T02:11:31.749Z,1027.69
2022-11-11T02:12:35.121Z,1027.67
2022-11-11T02:13:38.933Z,1027.64
2022-11-11T02:15:13.883Z,1027.63
2022-11-11T02:16:17.000Z,1027.68
2022-11-11T02:17:20.517Z,1027.62
2022-11-11T02:18:55.867Z,1027.56
2022-11-11T02:19:59.307Z,1027.59
2022-11-11T02:21:03.080Z,1027.57
2022-11-11T02:22:38.301Z,1027.49
2022-11-11T02:23:41.769Z,1027.49
2022-11-11T02:24:45.050Z,1027.49
2022-11-11T02:26:20.571Z,1027.42
2022-11-11T02:27:23.714Z,1027.42
2022-11-11T02:28:27.038Z,1027.41
2022-11-11T02:30:02.590Z,1027.38
2022-11-11T02:31:05.966Z,1027.39
2022-11-11T02:32:09.506Z,1027.43
2022-11-11T02:33:45.076Z,1027.38
2022-11-11T02:34:48.331Z,1027.42
2022-11-11T02:35:51.483Z,1027.34
2022-11-11T02:37:27.094Z,1027.42
2022-11-11T02:38:30.360Z,1027.30
2022-11-11T02:40:08.581Z,1027.35
2022-11-11T02:41:43.580Z,1027.36
2022-11-11T02:42:46.849Z,1027.33
2022-11-11T02:43:50.052Z,1027.29
2022-11-11T02:45:25.235Z,1027.23
2022-11-11T02:46:28.518Z,1027.28
2022-11-11T02:47:31.452Z,1027.26
2022-11-11T02:49:06.966Z,1027.26
2022-11-11T02:50:10.305Z,1027.30
2022-11-11T02:51:13.782Z,1027.29
2022-11-11T02:52:49.386Z,1027.28
2022-11-11T02:53:53.271Z,1027.25
2022-11-11T02:54:57.144Z,1027.27
2022-11-11T02:56:33.125Z,1027.34
2022-11-11T02:57:36.340Z,1027.30
2022-11-11T02:58:39.563Z,1027.27
2022-11-11T03:00:23.215Z,1027.29
2022-11-11T03:01:26.693Z,1027.26
2022-11-11T03:02:30.696Z,1027.23
2022-11-11T03:04:07.351Z,1027.22
2022-11-11T03:05:10.582Z,1027.21
2022-11-11T03:06:13.597Z,1027.22
2022-11-11T03:07:49.970Z,1027.21
2022-11-11T03:08:53.439Z,1027.18
2022-11-11T03:09:56.543Z,1027.25
2022-11-11T03:11:32.053Z,1027.26
2022-11-11T03:12:35.543Z,1027.32
2022-11-11T03:13:39.681Z,1027.33
2022-11-11T03:15:15.030Z,1027.35
2022-11-11T03:16:18.169Z,1027.35
2022-11-11T03:17:21.679Z,1027.33
2022-11-11T03:18:57.351Z,1027.37
2022-11-11T03:20:00.445Z,1027.43
2022-11-11T03:21:24.806Z,1027.43
2022-11-11T03:24:19.713Z,1027.51
2022-11-11T03:25:22.385Z,1027.53
2022-11-11T03:26:25.114Z,1027.56
2022-11-11T03:27:59.498Z,1027.60
2022-11-11T03:29:02.125Z,1027.56
2022-11-11T03:30:04.824Z,1027.56
2022-11-11T03:31:39.370Z,1027.59
2022-11-11T03:32:42.111Z,1027.63
2022-11-11T03:33:44.787Z,1027.58
2022-11-11T03:35:19.373Z,1027.62
2022-11-11T03:36:21.971Z,1027.59
2022-11-11T03:37:24.781Z,1027.61
2022-11-11T03:38:59.149Z,1027.58
2022-11-11T03:40:01.921Z,1027.60
2022-11-11T03:41:04.553Z,1027.56
2022-11-11T03:42:38.844Z,1027.58
2022-11-11T03:43:49.962Z,1027.55
2022-11-11T03:44:52.639Z,1027.51
2022-11-11T03:46:27.193Z,1027.52
2022-11-11T03:47:29.886Z,1027.52
2022-11-11T03:48:32.599Z,1027.54
2022-11-11T03:50:07.120Z,1027.57
2022-11-11T03:51:10.124Z,1027.57
2022-11-11T03:52:12.989Z,1027.55
2022-11-11T03:53:47.540Z,1027.54
2022-11-11T03:54:50.127Z,1027.56
2022-11-11T03:55:52.878Z,1027.51
2022-11-11T03:57:27.419Z,1027.56
2022-11-11T03:58:30.130Z,1027.55
2022-11-11T03:59:32.829Z,1027.60
2022-11-11T04:00:26.227Z,1027.58
2022-11-11T04:01:29.066Z,1027.52
2022-11-11T04:02:32.105Z,1027.53
2022-11-11T04:04:06.988Z,1027.51
2022-11-11T04:05:09.609Z,1027.53
2022-11-11T04:06:12.283Z,1027.53
2022-11-11T04:07:47.216Z,1027.60
2022-11-11T04:08:49.909Z,1027.51
2022-11-11T04:09:52.657Z,1027.53
2022-11-11T04:11:27.051Z,1027.47
2022-11-11T04:12:29.758Z,1027.49
2022-11-11T04:13:33.142Z,1027.52
2022-11-11T04:15:07.721Z,1027.58
2022-11-11T04:16:10.322Z,1027.55
2022-11-11T04:17:13.143Z,1027.64
2022-11-11T04:18:55.293Z,1027.62
2022-11-11T04:19:57.976Z,1027.65
2022-11-11T04:21:00.599Z,1027.71
2022-11-11T04:22:35.178Z,1027.71
2022-11-11T04:23:38.054Z,1027.71
2022-11-11T04:24:40.721Z,1027.69
2022-11-11T04:26:15.300Z,1027.60
2022-11-11T04:27:18.091Z,1027.64
2022-11-11T04:28:20.847Z,1027.66
2022-11-11T04:29:55.309Z,1027.63
2022-11-11T04:30:57.979Z,1027.61
2022-11-11T04:32:00.652Z,1027.61
2022-11-11T04:33:35.641Z,1027.54
2022-11-11T04:34:38.430Z,1027.56
2022-11-11T04:35:41.115Z,1027.59
2022-11-11T04:37:15.646Z,1027.56
2022-11-11T04:38:18.350Z,1027.53
2022-11-11T04:39:21.100Z,1027.52
2022-11-11T04:40:55.627Z,1027.56
2022-11-11T04:42:19.624Z,1027.56
2022-11-11T04:43:22.587Z,1027.57
2022-11-11T04:44:57.344Z,1027.61
2022-11-11T04:46:00.092Z,1027.65
2022-11-11T04:47:02.763Z,1027.62
2022-11-11T04:48:37.294Z,1027.67
2022-11-11T04:49:39.978Z,1027.67
2022-11-11T04:50:42.770Z,1027.63
2022-11-11T04:52:17.380Z,1027.60
2022-11-11T04:53:20.078Z,1027.57
2022-11-11T04:54:23.482Z,1027.54
2022-11-11T04:55:57.914Z,1027.56
2022-11-11T04:57:00.626Z,1027.51
2022-11-11T04:58:03.417Z,1027.53
2022-11-11T04:59:37.975Z,1027.48
2022-11-11T05:00:26.483Z,1027.50
2022-11-11T05:01:31.944Z,1027.52
2022-11-11T05:02:34.835Z,1027.50
2022-11-11T05:04:09.770Z,1027.53
2022-11-11T05:05:53.594Z,1027.49
2022-11-11T05:07:00.858Z,1027.48
2022-11-11T05:08:03.924Z,1027.44
2022-11-11T05:09:38.312Z,1027.41
2022-11-11T05:10:41.181Z,1027.37
2022-11-11T05:11:44.020Z,1027.38
2022-11-11T05:13:23.476Z,1027.38
2022-11-11T05:14:27.721Z,1027.34
2022-11-11T05:15:30.381Z,1027.32
2022-11-11T05:17:04.851Z,1027.34
2022-11-11T05:18:07.591Z,1027.34
2022-11-11T05:19:10.312Z,1027.30
2022-11-11T05:20:50.431Z,1027.26
2022-11-11T05:21:53.200Z,1027.31
2022-11-11T05:22:55.866Z,1027.24
2022-11-11T05:24:30.524Z,1027.30
2022-11-11T05:25:33.475Z,1027.24
2022-11-11T05:26:43.024Z,1027.29
2022-11-11T05:28:17.556Z,1027.25
2022-11-11T05:29:20.178Z,1027.27
2022-11-11T05:30:22.829Z,1027.24
2022-11-11T05:32:02.707Z,1027.27
2022-11-11T05:33:05.322Z,1027.30
2022-11-11T05:34:08.436Z,1027.35
2022-11-11T05:35:42.944Z,1027.33
2022-11-11T05:36:45.600Z,1027.40
2022-11-11T05:37:48.482Z,1027.39
2022-11-11T05:39:22.886Z,1027.47
2022-11-11T05:40:25.629Z,1027.49
2022-11-11T05:41:28.370Z,1027.52
2022-11-11T05:43:05.775Z,1027.55
2022-11-11T05:44:09.119Z,1027.57
2022-11-11T05:45:12.085Z,1027.59
2022-11-11T05:46:46.604Z,1027.59
2022-11-11T05:47:49.313Z,1027.61
2022-11-11T05:48:52.007Z,1027.60
2022-11-11T05:50:26.518Z,1027.60
2022-11-11T05:51:29.394Z,1027.59
2022-11-11T05:52:36.392Z,1027.64
2022-11-11T05:54:11.536Z,1027.67
2022-11-11T05:55:14.139Z,1027.70
2022-11-11T05:56:16.836Z,1027.72
2022-11-11T05:57:51.316Z,1027.70
2022-11-11T05:58:59.355Z,1027.75
2022-11-11T06:00:23.577Z,1027.72
2022-11-11T06:01:26.322Z,1027.77
2022-11-11T06:02:29.402Z,1027.74
2022-11-11T06:04:04.063Z,1027.76
2022-11-11T06:05:13.969Z,1027.81
2022-11-11T06:06:16.854Z,1027.81
2022-11-11T06:07:51.699Z,1027.87
2022-11-11T06:08:54.532Z,1027.94
2022-11-11T06:09:57.284Z,1027.92
2022-11-11T06:11:38.151Z,1027.96
2022-11-11T06:12:40.851Z,1027.94
2022-11-11T06:13:43.483Z,1027.95
2022-11-11T06:15:18.035Z,1028.03
2022-11-11T06:16:20.649Z,1028.02
2022-11-11T06:17:23.349Z,1028.05
2022-11-11T06:18:57.818Z,1028.11
2022-11-11T06:20:00.494Z,1028.16
2022-11-11T06:21:03.320Z,1028.12
2022-11-11T06:22:37.840Z,1028.15
2022-11-11T06:23:40.718Z,1028.18
2022-11-11T06:24:43.481Z,1028.14
2022-11-11T06:26:18.049Z,1028.20
2022-11-11T06:27:21.183Z,1028.19
2022-11-11T06:28:23.909Z,1028.19
2022-11-11T06:30:20.093Z,1028.20
2022-11-11T06:31:48.080Z,1028.23
2022-11-11T06:32:50.829Z,1028.21
2022-11-11T06:34:25.941Z,1028.24
2022-11-11T06:35:28.604Z,1028.25
2022-11-11T06:36:31.408Z,1028.26
2022-11-11T06:38:05.968Z,1028.27
2022-11-11T06:39:08.576Z,1028.30
2022-11-11T06:40:11.465Z,1028.26
2022-11-11T06:41:50.884Z,1028.24
2022-11-11T06:42:53.611Z,1028.26
2022-11-11T06:43:56.273Z,1028.24
2022-11-11T06:45:30.804Z,1028.23
2022-11-11T06:46:33.595Z,1028.25
2022-11-11T06:47:36.253Z,1028.28
2022-11-11T06:49:10.756Z,1028.24
2022-11-11T06:50:13.475Z,1028.22
2022-11-11T06:51:16.166Z,1028.25
2022-11-11T06:52:50.841Z,1028.30
2022-11-11T06:53:53.655Z,1028.29
2022-11-11T06:54:56.516Z,1028.27
2022-11-11T06:56:31.095Z,1028.26
2022-11-11T06:57:33.797Z,1028.29
2022-11-11T06:58:37.257Z,1028.33
2022-11-11T07:00:23.093Z,1028.34
2022-11-11T07:01:26.275Z,1028.37
2022-11-11T07:02:29.175Z,1028.33
2022-11-11T07:04:10.257Z,1028.36
2022-11-11T07:05:12.991Z,1028.36
2022-11-11T07:06:15.614Z,1028.41
2022-11-11T07:07:50.612Z,1028.43
2022-11-11T07:08:53.496Z,1028.41
2022-11-11T07:09:56.189Z,1028.35
2022-11-11T07:11:30.851Z,1028.38
2022-11-11T07:12:33.626Z,1028.39
2022-11-11T07:13:36.312Z,1028.39
2022-11-11T07:15:10.644Z,1028.45
2022-11-11T07:16:13.341Z,1028.44
2022-11-11T07:17:17.783Z,1028.46
2022-11-11T07:18:52.393Z,1028.41
2022-11-11T07:19:55.466Z,1028.47
2022-11-11T07:20:58.287Z,1028.44
2022-11-11T07:22:37.811Z,1028.46
2022-11-11T07:23:40.705Z,1028.47
2022-11-11T07:24:43.357Z,1028.49
2022-11-11T07:26:17.877Z,1028.44
2022-11-11T07:27:20.633Z,1028.46
2022-11-11T07:28:23.880Z,1028.45
2022-11-11T07:29:58.754Z,1028.51
2022-11-11T07:31:01.520Z,1028.51
2022-11-11T07:32:04.229Z,1028.48
2022-11-11T07:33:38.792Z,1028.51
2022-11-11T07:34:41.591Z,1028.58
2022-11-11T07:35:44.408Z,1028.58
2022-11-11T07:37:18.929Z,1028.60
2022-11-11T07:38:22.175Z,1028.60
2022-11-11T07:39:25.408Z,1028.64
2022-11-11T07:41:00.087Z,1028.70
2022-11-11T07:42:02.821Z,1028.67
2022-11-11T07:43:24.131Z,1028.73
2022-11-11T07:45:00.842Z,1028.75
2022-11-11T07:46:03.582Z,1028.74
2022-11-11T07:47:06.343Z,1028.72
2022-11-11T07:48:40.702Z,1028.74
2022-11-11T07:49:43.387Z,1028.85
2022-11-11T07:50:53.540Z,1028.80
2022-11-11T07:52:28.093Z,1028.84
2022-11-11T07:53:31.558Z,1028.85
2022-11-11T07:54:34.284Z,1028.87
2022-11-11T07:56:08.874Z,1028.92
2022-11-11T07:57:11.564Z,1028.90
2022-11-11T07:58:14.275Z,1028.91
2022-11-11T07:59:49.332Z,1028.91
2022-11-11T08:00:23.941Z,1028.96
2022-11-11T08:01:27.335Z,1028.93
2022-11-11T08:02:30.368Z,1028.94
2022-11-11T08:04:06.245Z,1028.92
2022-11-11T08:05:09.008Z,1028.92
2022-11-11T08:06:11.763Z,1028.92
2022-11-11T08:07:46.607Z,1028.88
2022-11-11T08:08:49.360Z,1028.92
2022-11-11T08:09:52.107Z,1028.90
2022-11-11T08:11:26.517Z,1028.88
2022-11-11T08:12:33.330Z,1028.91
2022-11-11T08:13:36.581Z,1028.93
2022-11-11T08:15:17.941Z,1028.93
2022-11-11T08:16:20.685Z,1028.96
2022-11-11T08:17:23.421Z,1028.99
2022-11-11T08:18:58.009Z,1029.01
2022-11-11T08:20:00.745Z,1029.03
2022-11-11T08:21:06.678Z,1029.00
2022-11-11T08:22:41.522Z,1028.99
2022-11-11T08:25:42.489Z,1028.98
2022-11-11T08:26:45.146Z,1029.01
2022-11-11T08:28:19.679Z,1028.99
2022-11-11T08:29:22.816Z,1029.04
2022-11-11T08:30:25.540Z,1029.06
2022-11-11T08:32:01.828Z,1029.02
2022-11-11T08:33:42.854Z,1029.06
2022-11-11T08:34:46.078Z,1029.03
2022-11-11T08:36:26.531Z,1029.04
2022-11-11T08:37:29.387Z,1029.04
2022-11-11T08:38:32.454Z,1029.11
2022-11-11T08:40:06.994Z,1029.07
2022-11-11T08:41:09.774Z,1029.10
2022-11-11T08:42:12.491Z,1029.08
2022-11-11T08:43:48.987Z,1029.09
2022-11-11T08:44:51.697Z,1029.07
2022-11-11T08:45:54.339Z,1029.09
2022-11-11T08:47:29.793Z,1029.13
2022-11-11T08:48:32.432Z,1029.16
2022-11-11T08:49:35.228Z,1029.17
2022-11-11T08:51:09.785Z,1029.16
2022-11-11T08:52:12.457Z,1029.19
2022-11-11T08:53:15.306Z,1029.21
2022-11-11T08:54:50.602Z,1029.24
2022-11-11T08:55:53.336Z,1029.20
2022-11-11T08:56:56.104Z,1029.20
2022-11-11T08:58:31.310Z,1029.24
2022-11-11T08:59:34.171Z,1029.24
2022-11-11T09:00:23.368Z,1029.23
2022-11-11T09:01:26.776Z,1029.23
2022-11-11T09:02:29.713Z,1029.23
2022-11-11T09:04:43.609Z,1029.24
2022-11-11T09:05:52.661Z,1029.28
2022-11-11T09:06:55.583Z,1029.30
2022-11-11T09:08:30.439Z,1029.31
2022-11-11T09:09:33.183Z,1029.31
2022-11-11T09:10:36.095Z,1029.36
2022-11-11T09:12:10.539Z,1029.40
2022-11-11T09:13:13.314Z,1029.38
2022-11-11T09:14:16.488Z,1029.36
2022-11-11T09:15:50.962Z,1029.40
2022-11-11T09:16:53.723Z,1029.39
2022-11-11T09:17:56.398Z,1029.40
2022-11-11T09:19:30.902Z,1029.47
2022-11-11T09:20:36.680Z,1029.50
2022-11-11T09:21:39.442Z,1029.56
2022-11-11T09:23:13.931Z,1029.50
2022-11-11T09:24:17.222Z,1029.54
2022-11-11T09:25:19.945Z,1029.56
2022-11-11T09:26:54.507Z,1029.53
2022-11-11T09:27:57.267Z,1029.60
2022-11-11T09:28:59.924Z,1029.65
2022-11-11T09:30:34.480Z,1029.64
2022-11-11T09:31:54.246Z,1029.66
2022-11-11T09:32:56.933Z,1029.68
2022-11-11T09:34:31.664Z,1029.70
2022-11-11T09:35:34.602Z,1029.71
2022-11-11T09:36:37.393Z,1029.70
2022-11-11T09:38:11.826Z,1029.70
2022-11-11T09:39:14.417Z,1029.69
2022-11-11T09:40:17.284Z,1029.67
2022-11-11T09:41:56.273Z,1029.65
2022-11-11T09:43:04.512Z,1029.67
2022-11-11T09:44:07.333Z,1029.63
2022-11-11T09:45:42.001Z,1029.66
2022-11-11T09:46:44.682Z,1029.62
2022-11-11T09:47:47.551Z,1029.66
2022-11-11T09:49:33.920Z,1029.64
2022-11-11T09:50:36.834Z,1029.69
2022-11-11T09:51:39.528Z,1029.71
2022-11-11T09:53:14.137Z,1029.72
2022-11-11T09:54:22.660Z,1029.72
2022-11-11T09:55:25.832Z,1029.71
2022-11-11T09:57:22.092Z,1029.72
2022-11-11T09:58:25.214Z,1029.70
2022-11-11T09:59:28.292Z,1029.67
2022-11-11T10:00:28.398Z,1029.72
2022-11-11T10:01:32.035Z,1029.67
2022-11-11T10:02:34.857Z,1029.70
2022-11-11T10:04:09.440Z,1029.67
2022-11-11T10:05:12.339Z,1029.69
2022-11-11T10:06:18.412Z,1029.70
2022-11-11T10:07:57.727Z,1029.73
2022-11-11T10:09:00.484Z,1029.75
2022-11-11T10:10:03.178Z,1029.76
2022-11-11T10:11:37.791Z,1029.75
2022-11-11T10:12:47.680Z,1029.76
2022-11-11T10:13:50.379Z,1029.75
2022-11-11T10:15:24.838Z,1029.76
2022-11-11T10:16:27.463Z,1029.72
2022-11-11T10:17:30.276Z,1029.75
2022-11-11T10:19:15.447Z,1029.77
2022-11-11T10:20:18.204Z,1029.78
2022-11-11T10:21:20.964Z,1029.79
2022-11-11T10:23:31.507Z,1029.79
2022-11-11T10:24:38.939Z,1029.81
2022-11-11T10:25:48.353Z,1029.83
2022-11-11T10:27:22.979Z,1029.86
2022-11-11T10:28:25.968Z,1029.85
2022-11-11T10:29:29.148Z,1029.89
2022-11-11T10:31:03.724Z,1029.90
2022-11-11T10:32:06.435Z,1029.86
2022-11-11T10:33:09.308Z,1029.84
2022-11-11T10:34:43.943Z,1029.86
2022-11-11T10:35:46.724Z,1029.85
2022-11-11T10:36:49.414Z,1029.85
2022-11-11T10:38:24.570Z,1029.78
2022-11-11T10:39:27.596Z,1029.84
2022-11-11T10:40:30.362Z,1029.77
2022-11-11T10:42:05.095Z,1029.75
2022-11-11T10:43:07.882Z,1029.75
2022-11-11T10:44:10.625Z,1029.77
2022-11-11T10:45:50.566Z,1029.77
2022-11-11T10:46:53.733Z,1029.81
2022-11-11T10:47:56.625Z,1029.78
2022-11-11T10:49:35.608Z,1029.79
2022-11-11T10:50:38.435Z,1029.74
2022-11-11T10:51:41.272Z,1029.73
2022-11-11T10:53:15.907Z,1029.77
2022-11-11T10:54:18.900Z,1029.75
2022-11-11T10:55:28.525Z,1029.72
2022-11-11T10:57:03.005Z,1029.71
2022-11-11T10:58:05.777Z,1029.73
2022-11-11T10:59:09.116Z,1029.70
2022-11-11T11:00:23.767Z,1029.70
2022-11-11T11:01:33.091Z,1029.65
2022-11-11T11:02:36.354Z,1029.71
2022-11-11T11:04:10.867Z,1029.75
2022-11-11T11:05:13.585Z,1029.76
2022-11-11T11:06:16.382Z,1029.80
2022-11-11T11:07:56.358Z,1029.76
2022-11-11T11:08:59.112Z,1029.72
2022-11-11T11:10:01.920Z,1029.68
2022-11-11T11:11:41.412Z,1029.68
2022-11-11T11:12:44.540Z,1029.67
2022-11-11T11:13:47.199Z,1029.64
2022-11-11T11:15:21.827Z,1029.63
2022-11-11T11:16:24.460Z,1029.60
2022-11-11T11:17:27.403Z,1029.66
2022-11-11T11:19:02.001Z,1029.65
2022-11-11T11:20:04.786Z,1029.64
2022-11-11T11:21:07.573Z,1029.62
2022-11-11T11:22:42.041Z,1029.60
2022-11-11T11:23:44.818Z,1029.54
2022-11-11T11:24:54.772Z,1029.56
2022-11-11T11:26:29.430Z,1029.51
2022-11-11T11:27:32.206Z,1029.54
2022-11-11T11:28:35.508Z,1029.54
2022-11-11T11:30:13.367Z,1029.53
2022-11-11T11:31:19.644Z,1029.52
2022-11-11T11:32:22.362Z,1029.50
2022-11-11T11:33:56.871Z,1029.51
2022-11-11T11:34:59.645Z,1029.58
2022-11-11T11:36:02.277Z,1029.58
2022-11-11T11:37:36.744Z,1029.55
2022-11-11T11:38:39.525Z,1029.56
2022-11-11T11:39:42.423Z,1029.55
2022-11-11T11:41:16.929Z,1029.49
2022-11-11T11:42:19.595Z,1029.51
2022-11-11T11:43:22.245Z,1029.46
2022-11-11T11:44:56.949Z,1029.45
2022-11-11T11:46:02.569Z,1029.39
2022-11-11T11:47:08.204Z,1029.40
2022-11-11T11:49:23.233Z,1029.46
2022-11-11T11:50:25.960Z,1029.46
2022-11-11T11:51:28.682Z,1029.42
2022-11-11T11:53:03.211Z,1029.37
2022-11-11T11:54:06.011Z,1029.39
2022-11-11T11:55:08.836Z,1029.40
2022-11-11T11:56:43.360Z,1029.40
2022-11-11T11:57:46.185Z,1029.40
2022-11-11T11:58:53.745Z,1029.40
2022-11-11T12:00:22.479Z,1029.38
2022-11-11T12:01:25.357Z,1029.42
2022-11-11T12:02:28.451Z,1029.37
2022-11-11T12:04:03.404Z,1029.36
2022-11-11T12:05:06.273Z,1029.40
2022-11-11T12:06:09.019Z,1029.39
2022-11-11T12:07:43.907Z,1029.40
2022-11-11T12:08:46.710Z,1029.36
2022-11-11T12:09:49.463Z,1029.39
2022-11-11T12:11:29.528Z,1029.35
2022-11-11T12:12:32.223Z,1029.36
2022-11-11T12:13:35.015Z,1029.38
2022-11-11T12:15:09.579Z,1029.34
2022-11-11T12:16:12.316Z,1029.38
2022-11-11T12:17:15.281Z,1029.40
2022-11-11T12:18:49.843Z,1029.41
2022-11-11T12:19:52.576Z,1029.34
2022-11-11T12:20:55.373Z,1029.38
2022-11-11T12:22:29.826Z,1029.37
2022-11-11T12:23:39.060Z,1029.37
2022-11-11T12:24:41.898Z,1029.35
2022-11-11T12:26:17.233Z,1029.35
2022-11-11T12:27:19.943Z,1029.35
2022-11-11T12:28:23.166Z,1029.33
2022-11-11T12:29:57.904Z,1029.33
2022-11-11T12:31:00.720Z,1029.31
2022-11-11T12:32:03.410Z,1029.32
2022-11-11T12:33:45.596Z,1029.32
2022-11-11T12:34:48.351Z,1029.29
2022-11-11T12:35:51.109Z,1029.26
2022-11-11T12:37:25.675Z,1029.32
2022-11-11T12:38:29.288Z,1029.29
2022-11-11T12:39:31.940Z,1029.29
2022-11-11T12:41:06.519Z,1029.28
2022-11-11T12:42:09.312Z,1029.29
2022-11-11T12:43:12.090Z,1029.26
2022-11-11T12:44:52.311Z,1029.27
2022-11-11T12:45:54.974Z,1029.28
2022-11-11T12:46:57.633Z,1029.24
2022-11-11T12:48:32.223Z,1029.26
2022-11-11T12:49:35.028Z,1029.24
2022-11-11T12:50:37.857Z,1029.29
2022-11-11T12:52:12.501Z,1029.27
2022-11-11T12:53:15.266Z,1029.28
2022-11-11T12:54:18.703Z,1029.26
2022-11-11T12:55:53.179Z,1029.29
2022-11-11T12:56:55.861Z,1029.26
2022-11-11T12:57:58.545Z,1029.29
2022-11-11T12:59:39.140Z,1029.27
2022-11-11T13:00:23.818Z,1029.25
2022-11-11T13:01:26.807Z,1029.30
2022-11-11T13:02:30.038Z,1029.28
2022-11-11T13:04:04.483Z,1029.20
2022-11-11T13:05:07.352Z,1029.22
2022-11-11T13:06:10.050Z,1029.20
2022-11-11T13:07:45.235Z,1029.15
2022-11-11T13:08:48.010Z,1029.18
2022-11-11T13:09:50.655Z,1029.19
2022-11-11T13:11:26.395Z,1029.20
2022-11-11T13:12:30.046Z,1029.16
2022-11-11T13:13:33.586Z,1029.22
2022-11-11T13:15:08.072Z,1029.19
2022-11-11T13:16:10.749Z,1029.20
2022-11-11T13:17:13.546Z,1029.25
2022-11-11T13:18:48.108Z,1029.28
2022-11-11T13:19:58.103Z,1029.25
2022-11-11T13:21:00.903Z,1029.26
2022-11-11T13:22:35.414Z,1029.23
2022-11-11T13:23:38.787Z,1029.22
2022-11-11T13:24:41.504Z,1029.31
2022-11-11T13:26:28.715Z,1029.30
2022-11-11T13:27:31.516Z,1029.32
2022-11-11T13:28:34.332Z,1029.29
2022-11-11T13:30:08.895Z,1029.35
2022-11-11T13:31:11.646Z,1029.38
2022-11-11T13:32:14.364Z,1029.31
2022-11-11T13:33:48.882Z,1029.38
2022-11-11T13:34:51.625Z,1029.38
2022-11-11T13:35:54.360Z,1029.36
2022-11-11T13:37:28.900Z,1029.35
2022-11-11T13:38:31.677Z,1029.39
2022-11-11T13:39:34.387Z,1029.41
2022-11-11T13:41:16.647Z,1029.43
2022-11-11T13:42:19.387Z,1029.45
2022-11-11T13:43:22.575Z,1029.45
2022-11-11T13:44:57.634Z,1029.44
2022-11-11T13:46:00.285Z,1029.46
2022-11-11T13:47:02.977Z,1029.45
2022-11-11T13:48:37.446Z,1029.49
2022-11-11T13:49:40.132Z,1029.48
2022-11-11T13:50:42.850Z,1029.52
2022-11-11T13:52:17.263Z,1029.47
2022-11-11T13:53:25.430Z,1029.52
2022-11-11T13:54:28.407Z,1029.50
2022-11-11T13:56:02.919Z,1029.48
2022-11-11T13:57:05.533Z,1029.51
2022-11-11T13:58:08.257Z,1029.51
2022-11-11T13:59:42.846Z,1029.49
2022-11-11T14:00:23.390Z,1029.49
2022-11-11T14:01:26.348Z,1029.51
2022-11-11T14:02:34.958Z,1029.48
2022-11-11T14:04:10.232Z,1029.51
2022-11-11T14:05:12.917Z,1029.48
2022-11-11T14:06:15.664Z,1029.47
2022-11-11T14:07:50.629Z,1029.51
2022-11-11T14:08:53.379Z,1029.55
2022-11-11T14:09:56.131Z,1029.53
2022-11-11T14:11:30.735Z,1029.56
2022-11-11T14:12:33.664Z,1029.58
2022-11-11T14:13:37.443Z,1029.54
2022-11-11T14:15:11.905Z,1029.55
2022-11-11T14:16:14.655Z,1029.57
2022-11-11T14:17:17.285Z,1029.57
2022-11-11T14:18:51.763Z,1029.59
2022-11-11T14:19:54.471Z,1029.58
2022-11-11T14:20:57.190Z,1029.61
2022-11-11T14:22:34.937Z,1029.58
2022-11-11T14:23:38.351Z,1029.53
2022-11-11T14:24:41.111Z,1029.57
2022-11-11T14:26:15.549Z,1029.56
2022-11-11T14:27:18.468Z,1029.56
2022-11-11T14:28:21.189Z,1029.57
2022-11-11T14:29:55.767Z,1029.52
2022-11-11T14:30:58.629Z,1029.54
2022-11-11T14:32:04.406Z,1029.50
2022-11-11T14:33:39.343Z,1029.49
2022-11-11T14:34:42.029Z,1029.52
2022-11-11T14:35:44.816Z,1029.46
2022-11-11T14:37:19.431Z,1029.45
2022-11-11T14:38:22.192Z,1029.44
2022-11-11T14:39:24.941Z,1029.46
2022-11-11T14:40:59.506Z,1029.46
2022-11-11T14:42:02.206Z,1029.45
2022-11-11T14:43:04.894Z,1029.42
2022-11-11T14:44:39.733Z,1029.42
2022-11-11T14:45:42.613Z,1029.43
2022-11-11T14:46:45.341Z,1029.44
2022-11-11T14:48:19.970Z,1029.42
2022-11-11T14:49:22.815Z,1029.43
2022-11-11T14:50:25.583Z,1029.42
2022-11-11T14:52:00.122Z,1029.41
2022-11-11T14:53:02.873Z,1029.40
2022-11-11T14:54:05.772Z,1029.37
2022-11-11T14:55:40.278Z,1029.43
2022-11-11T14:56:43.025Z,1029.45
2022-11-11T14:57:51.902Z,1029.45
2022-11-11T14:59:26.432Z,1029.44
2022-11-11T15:00:22.980Z,1029.50